createdAt,value
2018-12-26T00:00:03.868Z,34.17
2018-12-26T00:02:35.864Z,35.43
2018-12-26T00:05:08.006Z,38.67
2018-12-26T00:07:39.968Z,38.27
2018-12-26T00:10:11.749Z,42.53
2018-12-26T00:12:43.766Z,56.13
2018-12-26T00:15:15.620Z,39.23
2018-12-26T00:17:47.389Z,34.73
2018-12-26T00:20:20.324Z,32.10
2018-12-26T00:22:52.034Z,29.93
2018-12-26T00:25:23.603Z,36.17
2018-12-26T00:27:55.212Z,36.93
2018-12-26T00:30:26.938Z,36.87
2018-12-26T00:32:58.608Z,37.17
2018-12-26T00:35:30.791Z,34.73
2018-12-26T00:38:04.043Z,33.37
2018-12-26T00:40:36.453Z,30.43
2018-12-26T00:43:07.987Z,28.50
2018-12-26T00:45:40.349Z,29.63
2018-12-26T00:48:13.241Z,27.33
2018-12-26T00:50:44.931Z,28.50
2018-12-26T00:53:16.610Z,25.50
2018-12-26T00:55:49.395Z,28.00
2018-12-26T00:58:21.336Z,25.93
2018-12-26T01:00:52.914Z,28.17
2018-12-26T01:03:25.365Z,27.50
2018-12-26T01:05:57.142Z,26.20
2018-12-26T01:08:28.951Z,28.70
2018-12-26T01:11:01.039Z,26.80
2018-12-26T01:13:33.407Z,30.60
2018-12-26T01:16:05.460Z,28.57
2018-12-26T01:18:37.125Z,30.87
2018-12-26T01:21:09.170Z,28.40
2018-12-26T01:23:40.829Z,28.27
2018-12-26T01:26:19.285Z,29.27
2018-12-26T01:28:49.178Z,27.50
2018-12-26T01:31:23.025Z,30.93
2018-12-26T01:33:55.018Z,28.33
2018-12-26T01:36:26.676Z,26.20
2018-12-26T01:38:58.573Z,29.63
2018-12-26T01:41:30.149Z,30.70
2018-12-26T01:44:01.767Z,29.00
2018-12-26T01:46:33.657Z,28.40
2018-12-26T01:49:05.258Z,30.53
2018-12-26T01:51:37.027Z,27.70
2018-12-26T01:54:08.470Z,30.37
2018-12-26T01:56:41.939Z,37.47
2018-12-26T01:59:14.969Z,34.87
2018-12-26T02:01:48.081Z,33.23
2018-12-26T02:04:20.211Z,33.13
2018-12-26T02:06:52.600Z,34.83
2018-12-26T02:09:25.099Z,32.83
2018-12-26T02:11:56.554Z,29.97
2018-12-26T02:14:28.320Z,33.30
2018-12-26T02:17:01.513Z,31.00
2018-12-26T02:19:34.786Z,33.17
2018-12-26T02:22:07.694Z,30.10
2018-12-26T02:24:39.472Z,32.83
2018-12-26T02:27:11.862Z,34.93
2018-12-26T02:29:43.524Z,36.40
2018-12-26T02:32:15.039Z,34.97
2018-12-26T02:34:46.580Z,32.77
2018-12-26T02:37:19.726Z,31.70
2018-12-26T02:39:51.624Z,33.97
2018-12-26T02:42:23.354Z,34.20
2018-12-26T02:44:54.963Z,33.60
2018-12-26T02:47:26.652Z,34.73
2018-12-26T02:49:58.375Z,32.03
2018-12-26T02:52:30.131Z,32.30
2018-12-26T02:55:01.984Z,32.53
2018-12-26T02:57:33.724Z,34.83
2018-12-26T03:00:07.076Z,32.50
2018-12-26T03:02:38.926Z,32.10
2018-12-26T03:05:12.338Z,28.73
2018-12-26T03:07:44.324Z,31.93
2018-12-26T03:10:17.075Z,30.97
2018-12-26T03:12:48.605Z,30.07
2018-12-26T03:15:20.107Z,30.73
2018-12-26T03:17:51.730Z,31.20
2018-12-26T03:20:23.305Z,30.80
2018-12-26T03:22:55.689Z,32.77
2018-12-26T03:25:27.359Z,31.77
2018-12-26T03:28:00.143Z,29.73
2018-12-26T03:30:31.959Z,29.93
2018-12-26T03:33:03.477Z,29.13
2018-12-26T03:35:37.132Z,30.43
2018-12-26T03:38:09.191Z,31.17
2018-12-26T03:40:40.904Z,28.83
2018-12-26T03:43:14.279Z,28.67
2018-12-26T03:45:47.526Z,26.43
2018-12-26T03:48:19.337Z,29.07
2018-12-26T03:50:51.155Z,32.50
2018-12-26T03:53:27.364Z,29.57
2018-12-26T03:56:00.535Z,28.63
2018-12-26T03:58:35.013Z,30.53
2018-12-26T04:01:06.670Z,29.23
2018-12-26T04:03:39.949Z,27.47
2018-12-26T04:06:12.061Z,27.63
2018-12-26T04:08:44.589Z,29.90
2018-12-26T04:11:17.328Z,31.17
2018-12-26T04:13:48.833Z,30.43
2018-12-26T04:16:21.204Z,33.07
2018-12-26T04:18:52.826Z,33.87
2018-12-26T04:21:24.959Z,37.00
2018-12-26T04:23:58.224Z,30.47
2018-12-26T04:26:29.807Z,33.27
2018-12-26T04:29:01.457Z,35.67
2018-12-26T04:31:33.336Z,50.97
2018-12-26T04:34:06.728Z,101.70
2018-12-26T04:36:38.412Z,95.30
2018-12-26T04:39:11.344Z,64.83
2018-12-26T04:41:45.846Z,113.93
2018-12-26T04:44:17.434Z,68.83
2018-12-26T04:46:49.024Z,58.67
2018-12-26T04:49:23.757Z,44.63
2018-12-26T04:51:56.527Z,35.33
2018-12-26T04:54:28.012Z,34.77
2018-12-26T04:57:01.144Z,36.97
2018-12-26T04:59:32.650Z,43.67
2018-12-26T05:02:04.949Z,44.23
2018-12-26T05:04:37.810Z,53.40
2018-12-26T05:07:09.910Z,46.23
2018-12-26T05:09:41.700Z,62.07
2018-12-26T05:12:13.533Z,46.63
2018-12-26T05:14:45.108Z,34.30
2018-12-26T05:17:18.418Z,54.13
2018-12-26T05:19:50.880Z,30.73
2018-12-26T05:22:23.286Z,30.20
2018-12-26T05:24:54.888Z,33.80
2018-12-26T05:27:33.939Z,31.70
2018-12-26T05:30:01.718Z,37.30
2018-12-26T05:32:33.499Z,30.60
2018-12-26T05:35:05.163Z,28.83
2018-12-26T05:37:36.743Z,25.93
2018-12-26T05:40:08.345Z,29.83
2018-12-26T05:42:40.234Z,30.07
2018-12-26T05:45:12.333Z,30.13
2018-12-26T05:47:45.236Z,27.93
2018-12-26T05:50:17.707Z,29.17
2018-12-26T05:52:51.529Z,31.70
2018-12-26T05:55:24.210Z,29.63
2018-12-26T05:57:55.787Z,27.90
2018-12-26T06:00:28.566Z,27.23
2018-12-26T06:03:01.173Z,26.60
2018-12-26T06:05:33.369Z,25.93
2018-12-26T06:08:05.093Z,27.50
2018-12-26T06:10:38.273Z,25.43
2018-12-26T06:13:11.289Z,28.30
2018-12-26T06:15:43.702Z,27.33
2018-12-26T06:18:15.621Z,27.17
2018-12-26T06:20:47.193Z,26.50
2018-12-26T06:23:20.005Z,24.57
2018-12-26T06:25:51.659Z,25.90
2018-12-26T06:28:23.408Z,24.73
2018-12-26T06:30:55.030Z,24.10
2018-12-26T06:33:26.656Z,25.40
2018-12-26T06:35:58.940Z,23.07
2018-12-26T06:38:30.400Z,23.93
2018-12-26T06:41:02.171Z,23.10
2018-12-26T06:43:34.782Z,23.60
2018-12-26T06:46:07.101Z,23.77
2018-12-26T06:48:38.852Z,23.47
2018-12-26T06:51:10.376Z,23.60
2018-12-26T06:53:41.878Z,24.93
2018-12-26T06:56:13.780Z,24.17
2018-12-26T06:58:46.002Z,24.33
2018-12-26T07:01:17.838Z,27.10
2018-12-26T07:03:49.616Z,24.33
2018-12-26T07:06:21.370Z,25.60
2018-12-26T07:09:04.956Z,23.47
2018-12-26T07:11:37.859Z,21.87
2018-12-26T07:14:10.461Z,24.13
2018-12-26T07:16:42.479Z,25.23
2018-12-26T07:19:14.584Z,23.03
2018-12-26T07:21:47.893Z,23.40
2018-12-26T07:24:27.106Z,22.70
2018-12-26T07:27:06.436Z,21.17
2018-12-26T07:29:41.552Z,24.50
2018-12-26T07:32:13.236Z,23.67
2018-12-26T07:34:45.298Z,22.63
2018-12-26T07:37:17.015Z,23.43
2018-12-26T07:39:48.744Z,27.37
2018-12-26T07:42:21.383Z,24.93
2018-12-26T07:44:53.162Z,21.70
2018-12-26T07:47:24.916Z,23.83
2018-12-26T07:49:56.469Z,26.00
2018-12-26T07:52:28.061Z,23.23
2018-12-26T07:54:59.655Z,23.77
2018-12-26T07:57:32.650Z,23.27
2018-12-26T08:00:06.474Z,25.17
2018-12-26T08:02:38.931Z,25.27
2018-12-26T08:05:10.942Z,28.20
2018-12-26T08:07:43.974Z,32.37
2018-12-26T08:10:15.446Z,26.63
2018-12-26T08:12:46.964Z,29.90
2018-12-26T08:15:20.031Z,31.30
2018-12-26T08:17:51.663Z,51.20
2018-12-26T08:20:23.990Z,32.60
2018-12-26T08:22:55.778Z,25.77
2018-12-26T08:25:27.375Z,28.37
2018-12-26T08:27:59.123Z,26.93
2018-12-26T08:30:32.778Z,45.63
2018-12-26T08:33:06.641Z,22.37
2018-12-26T08:35:38.511Z,24.97
2018-12-26T08:38:10.141Z,26.53
2018-12-26T08:40:42.798Z,26.83
2018-12-26T08:43:14.662Z,27.20
2018-12-26T08:45:46.658Z,24.17
2018-12-26T08:48:18.397Z,24.00
2018-12-26T08:50:50.193Z,26.50
2018-12-26T08:53:22.155Z,22.97
2018-12-26T08:55:55.066Z,24.87
2018-12-26T08:58:34.997Z,23.37
2018-12-26T09:01:00.236Z,26.77
2018-12-26T09:03:32.376Z,25.77
2018-12-26T09:06:04.149Z,23.37
2018-12-26T09:08:35.505Z,24.73
2018-12-26T09:11:07.520Z,44.83
2018-12-26T09:13:39.465Z,40.37
2018-12-26T09:16:12.008Z,45.30
2018-12-26T09:18:43.776Z,37.13
2018-12-26T09:21:15.472Z,32.10
2018-12-26T09:23:47.348Z,32.90
2018-12-26T09:26:19.316Z,53.93
2018-12-26T09:28:51.594Z,40.33
2018-12-26T09:31:24.126Z,35.83
2018-12-26T09:33:56.149Z,27.20
2018-12-26T09:36:27.625Z,34.53
2018-12-26T09:39:00.983Z,36.03
2018-12-26T09:41:34.056Z,26.53
2018-12-26T09:44:05.596Z,43.63
2018-12-26T09:46:38.645Z,35.23
2018-12-26T09:49:10.434Z,32.97
2018-12-26T09:51:42.253Z,36.37
2018-12-26T09:54:13.882Z,29.27
2018-12-26T09:56:46.315Z,34.53
2018-12-26T09:59:20.117Z,35.07
2018-12-26T10:01:51.609Z,33.13
2018-12-26T10:04:24.373Z,32.03
2018-12-26T10:06:56.403Z,29.13
2018-12-26T10:09:28.099Z,23.03
2018-12-26T10:11:59.646Z,24.87
2018-12-26T10:14:31.406Z,23.17
2018-12-26T10:17:03.510Z,22.37
2018-12-26T10:19:35.448Z,27.90
2018-12-26T10:22:09.875Z,24.77
2018-12-26T10:24:42.740Z,21.93
2018-12-26T10:27:15.666Z,25.17
2018-12-26T10:29:47.266Z,22.37
2018-12-26T10:32:19.553Z,24.07
2018-12-26T10:34:51.308Z,22.10
2018-12-26T10:37:22.836Z,22.03
2018-12-26T10:39:54.545Z,31.30
2018-12-26T10:42:26.728Z,20.87
2018-12-26T10:45:00.155Z,22.23
2018-12-26T10:47:32.904Z,24.10
2018-12-26T10:50:04.905Z,21.37
2018-12-26T10:52:36.891Z,23.30
2018-12-26T10:55:08.835Z,33.07
2018-12-26T10:57:40.647Z,35.73
2018-12-26T11:00:13.649Z,29.63
2018-12-26T11:02:45.504Z,29.50
2018-12-26T11:05:18.587Z,21.03
2018-12-26T11:07:50.114Z,33.73
2018-12-26T11:10:21.642Z,25.57
2018-12-26T11:12:53.292Z,20.07
2018-12-26T11:15:25.097Z,20.67
2018-12-26T11:17:57.667Z,24.03
2018-12-26T11:20:29.534Z,32.33
2018-12-26T11:23:01.124Z,23.63
2018-12-26T11:25:33.046Z,32.83
2018-12-26T11:28:04.813Z,21.17
2018-12-26T11:30:37.699Z,26.17
2018-12-26T11:33:09.742Z,30.27
2018-12-26T11:35:41.511Z,27.30
2018-12-26T11:38:13.309Z,24.30
2018-12-26T11:40:45.116Z,21.27
2018-12-26T11:43:17.524Z,26.47
2018-12-26T11:45:49.245Z,27.60
2018-12-26T11:48:21.447Z,35.07
2018-12-26T11:50:52.977Z,67.60
2018-12-26T11:53:24.737Z,21.17
2018-12-26T11:55:56.191Z,27.17
2018-12-26T11:58:27.975Z,22.03
2018-12-26T12:00:59.939Z,21.27
2018-12-26T12:03:31.637Z,19.30
2018-12-26T12:06:03.320Z,17.17
2018-12-26T12:08:35.323Z,17.13
2018-12-26T12:11:07.257Z,17.23
2018-12-26T12:13:38.944Z,17.30
2018-12-26T12:16:11.135Z,18.40
2018-12-26T12:18:42.710Z,15.97
2018-12-26T12:21:15.747Z,16.73
2018-12-26T12:23:47.301Z,16.00
2018-12-26T12:26:19.403Z,16.90
2018-12-26T12:28:53.929Z,17.37
2018-12-26T12:31:25.534Z,17.43
2018-12-26T12:33:59.683Z,18.27
2018-12-26T12:36:31.912Z,17.60
2018-12-26T12:39:05.219Z,15.80
2018-12-26T12:41:36.799Z,14.97
2018-12-26T12:44:09.086Z,16.97
2018-12-26T12:46:40.818Z,15.57
2018-12-26T12:49:12.241Z,18.07
2018-12-26T12:51:44.461Z,16.70
2018-12-26T12:54:17.918Z,18.17
2018-12-26T12:56:50.086Z,17.07
2018-12-26T12:59:21.590Z,16.17
2018-12-26T13:01:53.306Z,15.87
2018-12-26T13:04:25.186Z,15.17
2018-12-26T13:06:57.179Z,17.07
2018-12-26T13:09:29.208Z,18.57
2018-12-26T13:12:02.665Z,14.23
2018-12-26T13:14:37.080Z,16.67
2018-12-26T13:17:08.754Z,18.20
2018-12-26T13:19:40.848Z,16.83
2018-12-26T13:22:12.872Z,17.53
2018-12-26T13:24:44.371Z,18.83
2018-12-26T13:27:16.206Z,19.70
2018-12-26T13:29:53.649Z,20.47
2018-12-26T13:32:21.560Z,20.10
2018-12-26T13:34:54.925Z,19.17
2018-12-26T13:37:26.796Z,20.07
2018-12-26T13:39:58.675Z,19.90
2018-12-26T13:42:30.120Z,20.20
2018-12-26T13:45:01.976Z,20.10
2018-12-26T13:47:35.410Z,17.00
2018-12-26T13:50:07.553Z,19.47
2018-12-26T13:52:40.525Z,16.60
2018-12-26T13:55:12.180Z,16.17
2018-12-26T13:57:44.071Z,21.17
2018-12-26T14:00:15.731Z,16.43
2018-12-26T14:02:49.199Z,18.13
2018-12-26T14:05:21.012Z,22.20
2018-12-26T14:07:54.525Z,18.67
2018-12-26T14:10:27.482Z,18.80
2018-12-26T14:12:59.403Z,19.47
2018-12-26T14:15:33.194Z,18.90
2018-12-26T14:18:06.114Z,18.50
2018-12-26T14:20:38.153Z,20.70
2018-12-26T14:23:10.398Z,19.10
2018-12-26T14:25:42.543Z,20.23
2018-12-26T14:28:14.237Z,21.53
2018-12-26T14:30:47.093Z,18.23
2018-12-26T14:33:18.999Z,21.50
2018-12-26T14:35:52.579Z,20.80
2018-12-26T14:38:24.377Z,21.10
2018-12-26T14:40:56.222Z,20.83
2018-12-26T14:43:27.859Z,18.77
2018-12-26T14:45:59.765Z,23.37
2018-12-26T14:48:31.535Z,21.63
2018-12-26T14:51:03.271Z,22.40
2018-12-26T14:53:37.063Z,23.07
2018-12-26T14:56:09.111Z,22.23
2018-12-26T14:58:42.256Z,22.27
2018-12-26T15:01:14.173Z,23.23
2018-12-26T15:03:46.025Z,26.53
2018-12-26T15:06:18.182Z,23.57
2018-12-26T15:08:50.368Z,22.13
2018-12-26T15:11:22.030Z,29.63
2018-12-26T15:13:54.568Z,24.07
2018-12-26T15:16:27.816Z,22.07
2018-12-26T15:19:16.476Z,27.80
2018-12-26T15:21:48.275Z,31.97
2018-12-26T15:24:21.399Z,27.03
2018-12-26T15:26:53.346Z,42.90
2018-12-26T15:29:25.327Z,45.93
2018-12-26T15:31:56.868Z,48.60
2018-12-26T15:34:28.413Z,44.53
2018-12-26T15:37:01.894Z,35.83
2018-12-26T15:39:33.462Z,33.80
2018-12-26T15:42:05.064Z,23.90
2018-12-26T15:44:37.125Z,27.53
2018-12-26T15:47:09.164Z,25.60
2018-12-26T15:49:42.256Z,24.30
2018-12-26T15:52:14.136Z,23.47
2018-12-26T15:54:45.872Z,23.43
2018-12-26T15:57:17.620Z,24.87
2018-12-26T15:59:49.213Z,21.77
2018-12-26T16:02:21.431Z,40.37
2018-12-26T16:04:54.737Z,32.03
2018-12-26T16:07:26.524Z,26.20
2018-12-26T16:09:58.241Z,26.67
2018-12-26T16:12:30.492Z,25.80
2018-12-26T16:15:02.267Z,24.53
2018-12-26T16:17:33.890Z,26.30
2018-12-26T16:20:06.281Z,21.73
2018-12-26T16:22:39.716Z,20.43
2018-12-26T16:25:12.083Z,19.73
2018-12-26T16:27:43.757Z,21.53
2018-12-26T16:30:16.541Z,21.23
2018-12-26T16:32:48.027Z,21.00
2018-12-26T16:35:19.977Z,24.23
2018-12-26T16:38:01.197Z,22.07
2018-12-26T16:40:24.927Z,22.43
2018-12-26T16:42:56.465Z,21.40
2018-12-26T16:45:28.101Z,22.87
2018-12-26T16:47:59.624Z,20.30
2018-12-26T16:50:31.171Z,23.00
2018-12-26T16:53:02.941Z,22.47
2018-12-26T16:55:34.409Z,20.90
2018-12-26T16:58:06.465Z,22.23
2018-12-26T17:00:39.559Z,33.80
2018-12-26T17:03:12.528Z,42.50
2018-12-26T17:05:44.029Z,43.93
2018-12-26T17:08:16.697Z,41.97
2018-12-26T17:10:48.741Z,38.53
2018-12-26T17:13:20.357Z,29.87
2018-12-26T17:15:52.160Z,26.37
2018-12-26T17:18:25.560Z,25.97
2018-12-26T17:20:57.071Z,25.90
2018-12-26T17:23:28.922Z,23.57
2018-12-26T17:26:00.873Z,27.63
2018-12-26T17:28:47.468Z,31.23
2018-12-26T17:31:32.079Z,36.20
2018-12-26T17:34:07.876Z,33.23
2018-12-26T17:36:41.874Z,32.43
2018-12-26T17:39:13.872Z,31.10
2018-12-26T17:41:45.596Z,31.03
2018-12-26T17:44:20.092Z,30.67
2018-12-26T17:46:51.575Z,31.73
2018-12-26T17:49:23.188Z,26.47
2018-12-26T17:51:55.016Z,24.20
2018-12-26T17:54:57.320Z,26.20
2018-12-26T17:57:36.759Z,23.13
2018-12-26T18:00:59.818Z,22.33
2018-12-26T18:03:34.150Z,25.07
2018-12-26T18:06:07.290Z,26.50
2018-12-26T18:08:38.853Z,24.60
2018-12-26T18:11:10.720Z,24.00
2018-12-26T18:13:44.028Z,25.13
2018-12-26T18:16:17.936Z,23.73
2018-12-26T18:18:50.693Z,26.23
2018-12-26T18:21:22.343Z,28.13
2018-12-26T18:23:54.017Z,26.67
2018-12-26T18:26:26.435Z,28.00
2018-12-26T18:28:59.740Z,27.47
2018-12-26T18:31:32.601Z,66.80
2018-12-26T18:34:04.031Z,60.50
2018-12-26T18:36:37.618Z,27.37
2018-12-26T18:39:09.419Z,28.27
2018-12-26T18:41:42.516Z,26.97
2018-12-26T18:44:14.881Z,25.77
2018-12-26T18:46:46.607Z,21.80
2018-12-26T18:49:22.770Z,21.57
2018-12-26T18:51:54.391Z,22.53
2018-12-26T18:54:26.332Z,21.73
2018-12-26T18:56:58.025Z,25.03
2018-12-26T18:59:31.310Z,24.03
2018-12-26T19:02:03.677Z,22.53
2018-12-26T19:04:35.621Z,24.53
2018-12-26T19:07:08.309Z,23.83
2018-12-26T19:09:42.751Z,24.20
2018-12-26T19:12:14.510Z,21.23
2018-12-26T19:14:48.417Z,20.07
2018-12-26T19:17:20.329Z,22.47
2018-12-26T19:19:52.157Z,22.87
2018-12-26T19:22:25.991Z,23.07
2018-12-26T19:24:59.384Z,23.80
2018-12-26T19:27:30.731Z,23.13
2018-12-26T19:30:04.223Z,23.83
2018-12-26T19:32:39.715Z,24.03
2018-12-26T19:35:13.779Z,26.20
2018-12-26T19:37:45.371Z,22.73
2018-12-26T19:40:16.873Z,23.80
2018-12-26T19:42:48.875Z,23.53
2018-12-26T19:45:20.555Z,23.07
2018-12-26T19:47:52.058Z,22.57
2018-12-26T19:50:23.509Z,26.50
2018-12-26T19:52:56.371Z,30.60
2018-12-26T19:55:30.469Z,25.30
2018-12-26T19:58:01.910Z,26.33
2018-12-26T20:00:34.474Z,25.37
2018-12-26T20:03:06.536Z,26.13
2018-12-26T20:05:38.000Z,27.50
2018-12-26T20:08:09.978Z,28.87
2018-12-26T20:10:41.896Z,27.70
2018-12-26T20:13:14.540Z,26.47
2018-12-26T20:15:47.358Z,26.93
2018-12-26T20:18:18.988Z,26.40
2018-12-26T20:20:50.659Z,27.80
2018-12-26T20:23:23.280Z,23.23
2018-12-26T20:25:54.808Z,24.90
2018-12-26T20:28:26.913Z,22.13
2018-12-26T20:31:00.665Z,24.57
2018-12-26T20:33:32.548Z,25.17
2018-12-26T20:36:04.092Z,22.23
2018-12-26T20:38:35.964Z,23.50
2018-12-26T20:41:08.120Z,21.03
2018-12-26T20:43:41.029Z,22.90
2018-12-26T20:46:12.685Z,22.03
2018-12-26T20:48:44.523Z,22.00
2018-12-26T20:51:16.426Z,23.73
2018-12-26T20:53:49.987Z,21.80
2018-12-26T20:56:21.462Z,21.67
2018-12-26T20:58:54.549Z,22.57
2018-12-26T21:01:26.825Z,23.87
2018-12-26T21:03:58.442Z,26.30
2018-12-26T21:06:30.321Z,26.30
2018-12-26T21:09:01.997Z,24.43
2018-12-26T21:11:35.085Z,23.20
2018-12-26T21:14:06.996Z,26.73
2018-12-26T21:16:39.789Z,24.07
2018-12-26T21:19:19.873Z,22.77
2018-12-26T21:21:53.165Z,24.17
2018-12-26T21:24:24.593Z,23.93
2018-12-26T21:26:58.521Z,22.77
2018-12-26T21:29:30.201Z,24.87
2018-12-26T21:32:02.006Z,23.90
2018-12-26T21:34:34.706Z,21.97
2018-12-26T21:37:06.622Z,24.90
2018-12-26T21:39:38.691Z,24.53
2018-12-26T21:42:10.454Z,23.70
2018-12-26T21:44:50.106Z,24.57
2018-12-26T21:47:22.032Z,24.93
2018-12-26T21:49:53.993Z,24.37
2018-12-26T21:52:25.858Z,26.17
2018-12-26T21:54:57.975Z,22.17
2018-12-26T21:57:31.081Z,23.53
2018-12-26T22:00:03.121Z,22.50
2018-12-26T22:02:35.078Z,21.57
2018-12-26T22:05:07.109Z,22.00
2018-12-26T22:07:39.744Z,22.47
2018-12-26T22:10:11.714Z,22.27
2018-12-26T22:12:45.172Z,22.97
2018-12-26T22:15:16.677Z,22.33
2018-12-26T22:17:49.744Z,22.50
2018-12-26T22:20:21.251Z,24.87
2018-12-26T22:22:53.142Z,23.03
2018-12-26T22:25:25.478Z,24.83
2018-12-26T22:27:56.998Z,25.00
2018-12-26T22:30:30.900Z,21.97
2018-12-26T22:33:02.741Z,24.70
2018-12-26T22:35:35.682Z,23.83
2018-12-26T22:38:08.356Z,23.80
2018-12-26T22:40:41.162Z,23.00
2018-12-26T22:43:14.027Z,23.47
2018-12-26T22:45:45.564Z,23.00
2018-12-26T22:48:17.472Z,25.63
2018-12-26T22:50:50.574Z,22.73
2018-12-26T22:53:23.276Z,23.53
2018-12-26T22:55:56.241Z,20.63
2018-12-26T22:58:29.336Z,25.27
2018-12-26T23:01:01.064Z,25.23
2018-12-26T23:06:09.460Z,24.33
2018-12-26T23:08:43.452Z,23.87
2018-12-26T23:11:16.270Z,22.53
2018-12-26T23:13:47.753Z,27.40
2018-12-26T23:16:21.764Z,25.07
2018-12-26T23:18:54.306Z,26.60
2018-12-26T23:21:26.427Z,30.73
2018-12-26T23:23:58.226Z,38.83
2018-12-26T23:26:30.042Z,35.07
2018-12-26T23:29:02.912Z,42.53
2018-12-26T23:31:34.524Z,43.83
2018-12-26T23:34:06.102Z,39.90
2018-12-26T23:36:37.915Z,38.33
2018-12-26T23:39:09.710Z,33.53
2018-12-26T23:41:42.787Z,26.57
2018-12-26T23:44:14.573Z,23.93
2018-12-26T23:46:46.639Z,22.97
2018-12-26T23:49:18.210Z,22.30
2018-12-26T23:51:50.252Z,22.20
2018-12-26T23:54:22.180Z,23.77
2018-12-26T23:56:54.204Z,27.17
2018-12-26T23:59:25.925Z,27.37
